Accueil
METAR-TAF:

METAR-TAF

Aéroports :

Aéroport de Liège

Liège, Belgique

latitude: 50-39N, longitude: 005-27E, altitude: 186 m

Observation

Le bulletin a été fait il y a 36 minutes, à 21:20 UTC
Vent 7 kt de ouest/sud-ouest
Température 14°C
Humidité 82%
Pression 1012 hPa
Visibilité 10 km ou plus
pas de nuages en-dessous de 1500 mètres et pas de cumulonimbus.

METAR: EBLG 182120Z 24007KT CAVOK 14/11 Q1012 NOSIG

Heure: 23:56 (21:56 UTC)

Prévision

Le bulletin a été fait il y a 4 heures et 55 minutes, à 17:01 UTC
Prévision valable du 18 à 18 UTC au 19 à 24 UTC
Vent 10 kt de ouest/sud-ouest
Visibilité 10 km ou plus
Nuages épars à une hauteur de 2000 ft
Nuages épars à une hauteur de 4000 ft

TAF: EBLG 181701Z 1818/1924 24010KT 9999 SCT020 SCT040

Observations et prévisions météorologiques de plus de 4000 aéroports (messages METAR et TAF).

Les stations disponibles sont représentées par des disques jaunes et rouges sur la carte.

Passer la souris dessus pour voir le nom de la station.

Cliquer dessus pour voir les observations et prévisions météorologiques.

Pour changer de carte: cliquez sur les boutons verts avec une croix noire pour zoomer, sur le bouton vert avec un tiret pour effectuer un zoom arrière, ou sur les flèches vertes pour les cartes adjacentes.


METAR-TAF: